Aviation Digital Data Service (ADDS)

Output produced by METARs form (0150 UTC 29 May 2022)
found at http://www.aviationweather.gov/metar/data/
 
METAR text: PANC 290053Z 30006KT 10SM FEW200 22/06 A2984 RMK AO2 SLP105 T02170056 $
Conditions at: PANC (ANCHORAGE INTL , AK, US) observed 0053 UTC 29 May 2022
Temperature: 21.7°C (71°F)
Dewpoint: 5.6°C (42°F) [RH = 35%]
Pressure (altimeter): 29.84 inches Hg (1010.6 mb)
[Sea-level pressure: 1010.5 mb]
Winds: from the WNW (300 degrees) at 7 MPH (6 knots; 3.1 m/s)
Visibility: 10 or more miles (16+ km)
Ceiling: at least 12,000 feet AGL
Clouds: few clouds at 20000 feet AGL
Weather:
SOME DATA ABOVE MAY BE INACCURATE!!!
"$" is an indication the sensor requires maintenance

METAR text: PANC 282353Z 30005KT 10SM SCT200 23/06 A2984 RMK AO2 SLP106 T02280056 10228 20150 56008 $
Conditions at: PANC (ANCHORAGE INTL , AK, US) observed 2353 UTC 28 May 2022
Temperature: 22.8°C (73°F)
Dewpoint: 5.6°C (42°F) [RH = 33%]
Pressure (altimeter): 29.84 inches Hg (1010.6 mb)
[Sea-level pressure: 1010.6 mb]
Winds: from the WNW (300 degrees) at 6 MPH (5 knots; 2.6 m/s)
Visibility: 10 or more miles (16+ km)
Ceiling: at least 12,000 feet AGL
Clouds: scattered clouds at 20000 feet AGL
Weather:
SOME DATA ABOVE MAY BE INACCURATE!!!
"$" is an indication the sensor requires maintenance

METAR text: PANC 282253Z VRB03KT 10SM SCT200 22/04 A2985 RMK AO2 SLP108 T02170044 $
Conditions at: PANC (ANCHORAGE INTL , AK, US) observed 2253 UTC 28 May 2022
Temperature: 21.7°C (71°F)
Dewpoint: 4.4°C (40°F) [RH = 32%]
Pressure (altimeter): 29.85 inches Hg (1010.9 mb)
[Sea-level pressure: 1010.8 mb]
Winds: variable direction winds at 3 MPH (3 knots; 1.5 m/s)
Visibility: 10 or more miles (16+ km)
Ceiling: at least 12,000 feet AGL
Clouds: scattered clouds at 20000 feet AGL
Weather:
SOME DATA ABOVE MAY BE INACCURATE!!!
"$" is an indication the sensor requires maintenance

METAR text: PANC 282153Z VRB04KT 10SM SCT200 21/03 A2986 RMK AO2 SLP111 T02110033 $
Conditions at: PANC (ANCHORAGE INTL , AK, US) observed 2153 UTC 28 May 2022
Temperature: 21.1°C (70°F)
Dewpoint: 3.3°C (38°F) [RH = 31%]
Pressure (altimeter): 29.86 inches Hg (1011.3 mb)
[Sea-level pressure: 1011.1 mb]
Winds: variable direction winds at 5 MPH (4 knots; 2.1 m/s)
Visibility: 10 or more miles (16+ km)
Ceiling: at least 12,000 feet AGL
Clouds: scattered clouds at 20000 feet AGL
Weather:
SOME DATA ABOVE MAY BE INACCURATE!!!
"$" is an indication the sensor requires maintenance

METAR text: PANC 282053Z VRB03KT 10SM SCT200 20/03 A2986 RMK AO2 SLP113 T02000028 50001 $
Conditions at: PANC (ANCHORAGE INTL , AK, US) observed 2053 UTC 28 May 2022
Temperature: 20.0°C (68°F)
Dewpoint: 2.8°C (37°F) [RH = 32%]
Pressure (altimeter): 29.86 inches Hg (1011.3 mb)
[Sea-level pressure: 1011.3 mb]
Winds: variable direction winds at 3 MPH (3 knots; 1.5 m/s)
Visibility: 10 or more miles (16+ km)
Ceiling: at least 12,000 feet AGL
Clouds: scattered clouds at 20000 feet AGL
Weather:
SOME DATA ABOVE MAY BE INACCURATE!!!
"$" is an indication the sensor requires maintenance

METAR text: PANC 281953Z VRB04KT 10SM FEW200 17/04 A2987 RMK AO2 SLP114 T01720044 $
Conditions at: PANC (ANCHORAGE INTL , AK, US) observed 1953 UTC 28 May 2022
Temperature: 17.2°C (63°F)
Dewpoint: 4.4°C (40°F) [RH = 43%]
Pressure (altimeter): 29.87 inches Hg (1011.6 mb)
[Sea-level pressure: 1011.4 mb]
Winds: variable direction winds at 5 MPH (4 knots; 2.1 m/s)
Visibility: 10 or more miles (16+ km)
Ceiling: at least 12,000 feet AGL
Clouds: few clouds at 20000 feet AGL
Weather:
SOME DATA ABOVE MAY BE INACCURATE!!!
"$" is an indication the sensor requires maintenance

METAR text: PANC 281853Z 30004KT 10SM FEW200 16/04 A2986 RMK AO2 SLP113 T01610044 $
Conditions at: PANC (ANCHORAGE INTL , AK, US) observed 1853 UTC 28 May 2022
Temperature: 16.1°C (61°F)
Dewpoint: 4.4°C (40°F) [RH = 46%]
Pressure (altimeter): 29.86 inches Hg (1011.3 mb)
[Sea-level pressure: 1011.3 mb]
Winds: from the WNW (300 degrees) at 5 MPH (4 knots; 2.1 m/s)
Visibility: 10 or more miles (16+ km)
Ceiling: at least 12,000 feet AGL
Clouds: few clouds at 20000 feet AGL
Weather:
SOME DATA ABOVE MAY BE INACCURATE!!!
"$" is an indication the sensor requires maintenance

METAR text: PANC 281753Z 00000KT 10SM FEW200 16/03 A2986 RMK AO2 SLP113 T01560033 10156 20072 50001 $
Conditions at: PANC (ANCHORAGE INTL , AK, US) observed 1753 UTC 28 May 2022
Temperature: 15.6°C (60°F)
Dewpoint: 3.3°C (38°F) [RH = 44%]
Pressure (altimeter): 29.86 inches Hg (1011.3 mb)
[Sea-level pressure: 1011.3 mb]
Winds: calm
Visibility: 10 or more miles (16+ km)
Ceiling: at least 12,000 feet AGL
Clouds: few clouds at 20000 feet AGL
Weather:
SOME DATA ABOVE MAY BE INACCURATE!!!
"$" is an indication the sensor requires maintenance

METAR text: PANC 281653Z 05004KT 10SM FEW200 14/03 A2986 RMK AO2 SLP113 T01390028 $
Conditions at: PANC (ANCHORAGE INTL , AK, US) observed 1653 UTC 28 May 2022
Temperature: 13.9°C (57°F)
Dewpoint: 2.8°C (37°F) [RH = 47%]
Pressure (altimeter): 29.86 inches Hg (1011.3 mb)
[Sea-level pressure: 1011.3 mb]
Winds: from the NE (50 degrees) at 5 MPH (4 knots; 2.1 m/s)
Visibility: 10 or more miles (16+ km)
Ceiling: at least 12,000 feet AGL
Clouds: few clouds at 20000 feet AGL
Weather:
SOME DATA ABOVE MAY BE INACCURATE!!!
"$" is an indication the sensor requires maintenance

METAR text: PANC 281553Z 34003KT 10SM FEW250 13/02 A2986 RMK AO2 SLP112 T01280022 $
Conditions at: PANC (ANCHORAGE INTL , AK, US) observed 1553 UTC 28 May 2022
Temperature: 12.8°C (55°F)
Dewpoint: 2.2°C (36°F) [RH = 48%]
Pressure (altimeter): 29.86 inches Hg (1011.3 mb)
[Sea-level pressure: 1011.2 mb]
Winds: from the NNW (340 degrees) at 3 MPH (3 knots; 1.5 m/s)
Visibility: 10 or more miles (16+ km)
Ceiling: at least 12,000 feet AGL
Clouds: few clouds at 25000 feet AGL
Weather:
SOME DATA ABOVE MAY BE INACCURATE!!!
"$" is an indication the sensor requires maintenance

METAR text: PANC 281453Z 00000KT 10SM FEW250 12/02 A2986 RMK AO2 SLP111 T01170017 51007 $
Conditions at: PANC (ANCHORAGE INTL , AK, US) observed 1453 UTC 28 May 2022
Temperature: 11.7°C (53°F)
Dewpoint: 1.7°C (35°F) [RH = 50%]
Pressure (altimeter): 29.86 inches Hg (1011.3 mb)
[Sea-level pressure: 1011.1 mb]
Winds: calm
Visibility: 10 or more miles (16+ km)
Ceiling: at least 12,000 feet AGL
Clouds: few clouds at 25000 feet AGL
Weather:
SOME DATA ABOVE MAY BE INACCURATE!!!
"$" is an indication the sensor requires maintenance

METAR text: PANC 281353Z 00000KT 10SM CLR 10/01 A2985 RMK AO2 SLP110 T01000011 $
Conditions at: PANC (ANCHORAGE INTL , AK, US) observed 1353 UTC 28 May 2022
Temperature: 10.0°C (50°F)
Dewpoint: 1.1°C (34°F) [RH = 54%]
Pressure (altimeter): 29.85 inches Hg (1010.9 mb)
[Sea-level pressure: 1011.0 mb]
Winds: calm
Visibility: 10 or more miles (16+ km)
Ceiling: at least 12,000 feet AGL
Clouds: sky clear below 12,000 feet AGL
Weather:
SOME DATA ABOVE MAY BE INACCURATE!!!
"$" is an indication the sensor requires maintenance

METAR text: PANC 281253Z 00000KT 10SM CLR 09/01 A2984 RMK AO2 SLP107 T00940006 $
Conditions at: PANC (ANCHORAGE INTL , AK, US) observed 1253 UTC 28 May 2022
Temperature: 9.4°C (49°F)
Dewpoint: 0.6°C (33°F) [RH = 54%]
Pressure (altimeter): 29.84 inches Hg (1010.6 mb)
[Sea-level pressure: 1010.7 mb]
Winds: calm
Visibility: 10 or more miles (16+ km)
Ceiling: at least 12,000 feet AGL
Clouds: sky clear below 12,000 feet AGL
Weather:
SOME DATA ABOVE MAY BE INACCURATE!!!
"$" is an indication the sensor requires maintenance

METAR text: PANC 281153Z 32003KT 10SM CLR 11/02 A2984 RMK AO2 SLP104 T01060022 10194 20100 53010 $
Conditions at: PANC (ANCHORAGE INTL , AK, US) observed 1153 UTC 28 May 2022
Temperature: 10.6°C (51°F)
Dewpoint: 2.2°C (36°F) [RH = 56%]
Pressure (altimeter): 29.84 inches Hg (1010.6 mb)
[Sea-level pressure: 1010.4 mb]
Winds: from the NW (320 degrees) at 3 MPH (3 knots; 1.5 m/s)
Visibility: 10 or more miles (16+ km)
Ceiling: at least 12,000 feet AGL
Clouds: sky clear below 12,000 feet AGL
Weather:
SOME DATA ABOVE MAY BE INACCURATE!!!
"$" is an indication the sensor requires maintenance

METAR text: PANC 281053Z 00000KT 10SM CLR 12/03 A2982 RMK AO2 SLP100 T01170033 $
Conditions at: PANC (ANCHORAGE INTL , AK, US) observed 1053 UTC 28 May 2022
Temperature: 11.7°C (53°F)
Dewpoint: 3.3°C (38°F) [RH = 56%]
Pressure (altimeter): 29.82 inches Hg (1009.9 mb)
[Sea-level pressure: 1010.0 mb]
Winds: calm
Visibility: 10 or more miles (16+ km)
Ceiling: at least 12,000 feet AGL
Clouds: sky clear below 12,000 feet AGL
Weather:
SOME DATA ABOVE MAY BE INACCURATE!!!
"$" is an indication the sensor requires maintenance

METAR text: PANC 280953Z 18005KT 10SM CLR 13/04 A2981 RMK AO2 SLP095 T01280044 $
Conditions at: PANC (ANCHORAGE INTL , AK, US) observed 0953 UTC 28 May 2022
Temperature: 12.8°C (55°F)
Dewpoint: 4.4°C (40°F) [RH = 57%]
Pressure (altimeter): 29.81 inches Hg (1009.6 mb)
[Sea-level pressure: 1009.5 mb]
Winds: from the S (180 degrees) at 6 MPH (5 knots; 2.6 m/s)
Visibility: 10 or more miles (16+ km)
Ceiling: at least 12,000 feet AGL
Clouds: sky clear below 12,000 feet AGL
Weather:
SOME DATA ABOVE MAY BE INACCURATE!!!
"$" is an indication the sensor requires maintenance

METAR text: PANC 280853Z 21004KT 10SM CLR 12/01 A2980 RMK AO2 SLP093 T01220011 402390061 53008 $
Conditions at: PANC (ANCHORAGE INTL , AK, US) observed 0853 UTC 28 May 2022
Temperature: 12.2°C (54°F)
Dewpoint: 1.1°C (34°F) [RH = 47%]
Pressure (altimeter): 29.80 inches Hg (1009.2 mb)
[Sea-level pressure: 1009.3 mb]
Winds: from the SSW (210 degrees) at 5 MPH (4 knots; 2.1 m/s)
Visibility: 10 or more miles (16+ km)
Ceiling: at least 12,000 feet AGL
Clouds: sky clear below 12,000 feet AGL
Weather:
SOME DATA ABOVE MAY BE INACCURATE!!!
"$" is an indication the sensor requires maintenance

METAR text: PANC 280753Z 33005KT 10SM FEW055 FEW100 SCT250 15/01 A2979 RMK AO2 SLP089 T01500006
Conditions at: PANC (ANCHORAGE INTL , AK, US) observed 0753 UTC 28 May 2022
Temperature: 15.0°C (59°F)
Dewpoint: 0.6°C (33°F) [RH = 37%]
Pressure (altimeter): 29.79 inches Hg (1008.9 mb)
[Sea-level pressure: 1008.9 mb]
Winds: from the NNW (330 degrees) at 6 MPH (5 knots; 2.6 m/s)
Visibility: 10 or more miles (16+ km)
Ceiling: at least 12,000 feet AGL
Clouds: few clouds at 5500 feet AGL
few clouds at 10000 feet AGL
scattered clouds at 25000 feet AGL
Weather: no significant weather observed at this time

METAR text: PANC 280653Z 34006KT 10SM FEW055 FEW100 SCT250 18/00 A2979 RMK AO2 SLP087 T01780000
Conditions at: PANC (ANCHORAGE INTL , AK, US) observed 0653 UTC 28 May 2022
Temperature: 17.8°C (64°F)
Dewpoint: 0.0°C (32°F) [RH = 30%]
Pressure (altimeter): 29.79 inches Hg (1008.9 mb)
[Sea-level pressure: 1008.7 mb]
Winds: from the NNW (340 degrees) at 7 MPH (6 knots; 3.1 m/s)
Visibility: 10 or more miles (16+ km)
Ceiling: at least 12,000 feet AGL
Clouds: few clouds at 5500 feet AGL
few clouds at 10000 feet AGL
scattered clouds at 25000 feet AGL
Weather: no significant weather observed at this time

METAR text: PANC 280553Z 34008KT 10SM FEW055 FEW100 SCT250 19/01 A2978 RMK AO2 SLP085 T01940011 10239 20194 53004
Conditions at: PANC (ANCHORAGE INTL , AK, US) observed 0553 UTC 28 May 2022
Temperature: 19.4°C (67°F)
Dewpoint: 1.1°C (34°F) [RH = 29%]
Pressure (altimeter): 29.78 inches Hg (1008.5 mb)
[Sea-level pressure: 1008.5 mb]
Winds: from the NNW (340 degrees) at 9 MPH (8 knots; 4.1 m/s)
Visibility: 10 or more miles (16+ km)
Ceiling: at least 12,000 feet AGL
Clouds: few clouds at 5500 feet AGL
few clouds at 10000 feet AGL
scattered clouds at 25000 feet AGL
Weather: no significant weather observed at this time

METAR text: PANC 280453Z 35011KT 10SM FEW055 FEW100 SCT250 21/01 A2978 RMK AO2 SLP084 T02060011
Conditions at: PANC (ANCHORAGE INTL , AK, US) observed 0453 UTC 28 May 2022
Temperature: 20.6°C (69°F)
Dewpoint: 1.1°C (34°F) [RH = 27%]
Pressure (altimeter): 29.78 inches Hg (1008.5 mb)
[Sea-level pressure: 1008.4 mb]
Winds: from the N (350 degrees) at 13 MPH (11 knots; 5.7 m/s)
Visibility: 10 or more miles (16+ km)
Ceiling: at least 12,000 feet AGL
Clouds: few clouds at 5500 feet AGL
few clouds at 10000 feet AGL
scattered clouds at 25000 feet AGL
Weather: no significant weather observed at this time

METAR text: PANC 280353Z 35009G19KT 10SM FEW055 FEW100 SCT250 22/01 A2977 RMK AO2 SLP083 T02220006
Conditions at: PANC (ANCHORAGE INTL , AK, US) observed 0353 UTC 28 May 2022
Temperature: 22.2°C (72°F)
Dewpoint: 0.6°C (33°F) [RH = 24%]
Pressure (altimeter): 29.77 inches Hg (1008.2 mb)
[Sea-level pressure: 1008.3 mb]
Winds: from the N (350 degrees) at 10 MPH (9 knots; 4.6 m/s)
gusting to 22 MPH (19 knots; 9.8 m/s)
Visibility: 10 or more miles (16+ km)
Ceiling: at least 12,000 feet AGL
Clouds: few clouds at 5500 feet AGL
few clouds at 10000 feet AGL
scattered clouds at 25000 feet AGL
Weather: no significant weather observed at this time

METAR text: PANC 280253Z 33013G19KT 10SM FEW055 BKN250 23/00 A2977 RMK AO2 SLP081 T02280000 56010
Conditions at: PANC (ANCHORAGE INTL , AK, US) observed 0253 UTC 28 May 2022
Temperature: 22.8°C (73°F)
Dewpoint: 0.0°C (32°F) [RH = 22%]
Pressure (altimeter): 29.77 inches Hg (1008.2 mb)
[Sea-level pressure: 1008.1 mb]
Winds: from the NNW (330 degrees) at 15 MPH (13 knots; 6.7 m/s)
gusting to 22 MPH (19 knots; 9.8 m/s)
Visibility: 10 or more miles (16+ km)
Ceiling: 25000 feet AGL
Clouds: few clouds at 5500 feet AGL
broken clouds at 25000 feet AGL
Weather: no significant weather observed at this time

METAR text: PANC 280153Z 33009KT 10SM FEW055 BKN250 23/02 A2977 RMK AO2 SLP082 T02330017
Conditions at: PANC (ANCHORAGE INTL , AK, US) observed 0153 UTC 28 May 2022
Temperature: 23.3°C (74°F)
Dewpoint: 1.7°C (35°F) [RH = 24%]
Pressure (altimeter): 29.77 inches Hg (1008.2 mb)
[Sea-level pressure: 1008.2 mb]
Winds: from the NNW (330 degrees) at 10 MPH (9 knots; 4.6 m/s)
Visibility: 10 or more miles (16+ km)
Ceiling: 25000 feet AGL
Clouds: few clouds at 5500 feet AGL
broken clouds at 25000 feet AGL
Weather: no significant weather observed at this time

METAR text: PANC 280053Z 25007KT 10SM FEW055 SCT100 BKN250 21/04 A2979 RMK AO2 SLP086 T02110039
Conditions at: PANC (ANCHORAGE INTL , AK, US) observed 0053 UTC 28 May 2022
Temperature: 21.1°C (70°F)
Dewpoint: 3.9°C (39°F) [RH = 32%]
Pressure (altimeter): 29.79 inches Hg (1008.9 mb)
[Sea-level pressure: 1008.6 mb]
Winds: from the WSW (250 degrees) at 8 MPH (7 knots; 3.6 m/s)
Visibility: 10 or more miles (16+ km)
Ceiling: 25000 feet AGL
Clouds: few clouds at 5500 feet AGL
scattered clouds at 10000 feet AGL
broken clouds at 25000 feet AGL
Weather: no significant weather observed at this time

METAR text: PANC 272353Z 25009KT 10SM FEW055 SCT100 BKN250 21/06 A2980 RMK AO2 SLP091 T02060056 10222 20139 57014
Conditions at: PANC (ANCHORAGE INTL , AK, US) observed 2353 UTC 27 May 2022
Temperature: 20.6°C (69°F)
Dewpoint: 5.6°C (42°F) [RH = 37%]
Pressure (altimeter): 29.80 inches Hg (1009.2 mb)
[Sea-level pressure: 1009.1 mb]
Winds: from the WSW (250 degrees) at 10 MPH (9 knots; 4.6 m/s)
Visibility: 10 or more miles (16+ km)
Ceiling: 25000 feet AGL
Clouds: few clouds at 5500 feet AGL
scattered clouds at 10000 feet AGL
broken clouds at 25000 feet AGL
Weather: no significant weather observed at this time

METAR text: PANC 272253Z 30006KT 10SM FEW055 SCT200 22/09 A2981 RMK AO2 SLP096 T02170089
Conditions at: PANC (ANCHORAGE INTL , AK, US) observed 2253 UTC 27 May 2022
Temperature: 21.7°C (71°F)
Dewpoint: 8.9°C (48°F) [RH = 44%]
Pressure (altimeter): 29.81 inches Hg (1009.6 mb)
[Sea-level pressure: 1009.6 mb]
Winds: from the WNW (300 degrees) at 7 MPH (6 knots; 3.1 m/s)
Visibility: 10 or more miles (16+ km)
Ceiling: at least 12,000 feet AGL
Clouds: few clouds at 5500 feet AGL
scattered clouds at 20000 feet AGL
Weather: no significant weather observed at this time

METAR text: PANC 272153Z 30003KT 10SM FEW055 FEW200 20/09 A2982 RMK AO2 SLP100 T02000089
Conditions at: PANC (ANCHORAGE INTL , AK, US) observed 2153 UTC 27 May 2022
Temperature: 20.0°C (68°F)
Dewpoint: 8.9°C (48°F) [RH = 49%]
Pressure (altimeter): 29.82 inches Hg (1009.9 mb)
[Sea-level pressure: 1010.0 mb]
Winds: from the WNW (300 degrees) at 3 MPH (3 knots; 1.5 m/s)
Visibility: 10 or more miles (16+ km)
Ceiling: at least 12,000 feet AGL
Clouds: few clouds at 5500 feet AGL
few clouds at 20000 feet AGL
Weather: no significant weather observed at this time

METAR text: PANC 272053Z 32005KT 10SM FEW055 FEW200 19/06 A2984 RMK AO2 SLP105 T01940061 56008
Conditions at: PANC (ANCHORAGE INTL , AK, US) observed 2053 UTC 27 May 2022
Temperature: 19.4°C (67°F)
Dewpoint: 6.1°C (43°F) [RH = 42%]
Pressure (altimeter): 29.84 inches Hg (1010.6 mb)
[Sea-level pressure: 1010.5 mb]
Winds: from the NW (320 degrees) at 6 MPH (5 knots; 2.6 m/s)
Visibility: 10 or more miles (16+ km)
Ceiling: at least 12,000 feet AGL
Clouds: few clouds at 5500 feet AGL
few clouds at 20000 feet AGL
Weather: no significant weather observed at this time

METAR text: PANC 271953Z 32005KT 10SM FEW060 FEW200 18/06 A2985 RMK AO2 SLP107 T01780056
Conditions at: PANC (ANCHORAGE INTL , AK, US) observed 1953 UTC 27 May 2022
Temperature: 17.8°C (64°F)
Dewpoint: 5.6°C (42°F) [RH = 45%]
Pressure (altimeter): 29.85 inches Hg (1010.9 mb)
[Sea-level pressure: 1010.7 mb]
Winds: from the NW (320 degrees) at 6 MPH (5 knots; 2.6 m/s)
Visibility: 10 or more miles (16+ km)
Ceiling: at least 12,000 feet AGL
Clouds: few clouds at 6000 feet AGL
few clouds at 20000 feet AGL
Weather: no significant weather observed at this time

METAR text: PANC 271853Z 05003KT 10SM FEW060 FEW120 17/04 A2985 RMK AO2 SLP109 T01670044
Conditions at: PANC (ANCHORAGE INTL , AK, US) observed 1853 UTC 27 May 2022
Temperature: 16.7°C (62°F)
Dewpoint: 4.4°C (40°F) [RH = 44%]
Pressure (altimeter): 29.85 inches Hg (1010.9 mb)
[Sea-level pressure: 1010.9 mb]
Winds: from the NE (50 degrees) at 3 MPH (3 knots; 1.5 m/s)
Visibility: 10 or more miles (16+ km)
Ceiling: at least 12,000 feet AGL
Clouds: few clouds at 6000 feet AGL
few clouds at 12000 feet AGL
Weather: no significant weather observed at this time

METAR text: PANC 271753Z 32003KT 10SM CLR 14/07 A2986 RMK AO2 SLP113 T01390067 10139 20061 53001
Conditions at: PANC (ANCHORAGE INTL , AK, US) observed 1753 UTC 27 May 2022
Temperature: 13.9°C (57°F)
Dewpoint: 6.7°C (44°F) [RH = 62%]
Pressure (altimeter): 29.86 inches Hg (1011.3 mb)
[Sea-level pressure: 1011.3 mb]
Winds: from the NW (320 degrees) at 3 MPH (3 knots; 1.5 m/s)
Visibility: 10 or more miles (16+ km)
Ceiling: at least 12,000 feet AGL
Clouds: sky clear below 12,000 feet AGL
Weather: no significant weather observed at this time

METAR text: PANC 271653Z 32005KT 10SM FEW200 12/06 A2986 RMK AO2 SLP113 T01220061
Conditions at: PANC (ANCHORAGE INTL , AK, US) observed 1653 UTC 27 May 2022
Temperature: 12.2°C (54°F)
Dewpoint: 6.1°C (43°F) [RH = 66%]
Pressure (altimeter): 29.86 inches Hg (1011.3 mb)
[Sea-level pressure: 1011.3 mb]
Winds: from the NW (320 degrees) at 6 MPH (5 knots; 2.6 m/s)
Visibility: 10 or more miles (16+ km)
Ceiling: at least 12,000 feet AGL
Clouds: few clouds at 20000 feet AGL
Weather: no significant weather observed at this time

METAR text: PANC 271553Z 15004KT 10SM FEW200 11/04 A2986 RMK AO2 SLP111 T01110044
Conditions at: PANC (ANCHORAGE INTL , AK, US) observed 1553 UTC 27 May 2022
Temperature: 11.1°C (52°F)
Dewpoint: 4.4°C (40°F) [RH = 63%]
Pressure (altimeter): 29.86 inches Hg (1011.3 mb)
[Sea-level pressure: 1011.1 mb]
Winds: from the SSE (150 degrees) at 5 MPH (4 knots; 2.1 m/s)
Visibility: 10 or more miles (16+ km)
Ceiling: at least 12,000 feet AGL
Clouds: few clouds at 20000 feet AGL
Weather: no significant weather observed at this time

METAR text: PANC 271453Z 18003KT 10SM FEW200 09/05 A2986 RMK AO2 SLP112 T00940050 54000
Conditions at: PANC (ANCHORAGE INTL , AK, US) observed 1453 UTC 27 May 2022
Temperature: 9.4°C (49°F)
Dewpoint: 5.0°C (41°F) [RH = 74%]
Pressure (altimeter): 29.86 inches Hg (1011.3 mb)
[Sea-level pressure: 1011.2 mb]
Winds: from the S (180 degrees) at 3 MPH (3 knots; 1.5 m/s)
Visibility: 10 or more miles (16+ km)
Ceiling: at least 12,000 feet AGL
Clouds: few clouds at 20000 feet AGL
Weather: no significant weather observed at this time

METAR text: PANC 271353Z 15003KT 10SM CLR 07/04 A2986 RMK AO2 SLP112 T00670039
Conditions at: PANC (ANCHORAGE INTL , AK, US) observed 1353 UTC 27 May 2022
Temperature: 6.7°C (44°F)
Dewpoint: 3.9°C (39°F) [RH = 82%]
Pressure (altimeter): 29.86 inches Hg (1011.3 mb)
[Sea-level pressure: 1011.2 mb]
Winds: from the SSE (150 degrees) at 3 MPH (3 knots; 1.5 m/s)
Visibility: 10 or more miles (16+ km)
Ceiling: at least 12,000 feet AGL
Clouds: sky clear below 12,000 feet AGL
Weather: no significant weather observed at this time

Forecast for: PANC (ANCHORAGE INTL , AK, US)
Text: PANC 282320Z 2900/3006 24006KT P6SM SKC
Forecast period: 0000 UTC 29 May 2022 to 0600 UTC 30 May 2022
Forecast type: FROM: standard forecast or significant change
Winds: from the WSW (240 degrees) at 7 MPH (6 knots; 3.1 m/s)
Visibility: 6 or more miles (10+ km)
Clouds: clear skies
Weather: no significant weather forecast for this period